AJT835 KMIA-MYEM
Flight info
| Callsign | AJT835 |
|---|---|
| Flight time | 0h 33m |
| Altitude | 25000 |
| Route | KLADA2 RAJAY |
| Aircraft | B722/M-SDFGHRWY/C |
Departure
| Time | 2026-04-24 23:02 |
|---|---|
| Airport | Miami International Airport (KMIA) |
Arrival
| Time | 2026-04-24 23:35 |
|---|---|
| Airport | Governor's Harbour Airport (MYEM) |
| Time | Latitude | Longitude | Altitude | Speed | Heading |
|---|---|---|---|---|---|
| 2026-04-24 22:34 | 25.80603 | -80.27030 | 19 ft | 0 kts | 357° |
| 2026-04-24 22:48 | 25.80599 | -80.27030 | 18 ft | 3 kts | 357° |
| 2026-04-24 22:48 | 25.80573 | -80.27027 | 22 ft | 4 kts | 348° |
| 2026-04-24 22:49 | 25.80548 | -80.27017 | 21 ft | 4 kts | 332° |
| 2026-04-24 22:49 | 25.80530 | -80.26999 | 22 ft | 4 kts | 295° |
| 2026-04-24 22:49 | 25.80528 | -80.26984 | 22 ft | 0 kts | 262° |
| 2026-04-24 22:52 | 25.80527 | -80.26994 | 23 ft | 4 kts | 261° |
| 2026-04-24 22:52 | 25.80521 | -80.27044 | 18 ft | 8 kts | 264° |
| 2026-04-24 22:53 | 25.80517 | -80.27122 | 18 ft | 12 kts | 268° |
| 2026-04-24 22:53 | 25.80513 | -80.27224 | 18 ft | 15 kts | 268° |
| 2026-04-24 22:53 | 25.80508 | -80.27349 | 18 ft | 18 kts | 266° |
| 2026-04-24 22:53 | 25.80505 | -80.27503 | 18 ft | 22 kts | 272° |
| 2026-04-24 22:54 | 25.80506 | -80.27678 | 19 ft | 24 kts | 266° |
| 2026-04-24 22:54 | 25.80494 | -80.27869 | 19 ft | 26 kts | 270° |
| 2026-04-24 22:54 | 25.80489 | -80.28080 | 19 ft | 28 kts | 266° |
| 2026-04-24 22:54 | 25.80476 | -80.28305 | 19 ft | 30 kts | 267° |
| 2026-04-24 22:55 | 25.80467 | -80.28546 | 20 ft | 32 kts | 267° |
| 2026-04-24 22:55 | 25.80452 | -80.28799 | 18 ft | 34 kts | 268° |
| 2026-04-24 22:55 | 25.80444 | -80.29065 | 18 ft | 35 kts | 266° |
| 2026-04-24 22:55 | 25.80433 | -80.29341 | 18 ft | 36 kts | 268° |
| 2026-04-24 22:56 | 25.80423 | -80.29626 | 19 ft | 37 kts | 267° |
| 2026-04-24 22:56 | 25.80410 | -80.29906 | 21 ft | 32 kts | 268° |
| 2026-04-24 22:56 | 25.80405 | -80.30033 | 18 ft | 10 kts | 265° |
| 2026-04-24 22:56 | 25.80404 | -80.30044 | 18 ft | 0 kts | 264° |
| 2026-04-24 22:58 | 25.80403 | -80.30057 | 18 ft | 4 kts | 265° |
| 2026-04-24 22:58 | 25.80400 | -80.30116 | 18 ft | 10 kts | 252° |
| 2026-04-24 22:59 | 25.80387 | -80.30136 | 19 ft | 0 kts | 217° |
| 2026-04-24 23:00 | 25.80384 | -80.30138 | 19 ft | 3 kts | 213° |
| 2026-04-24 23:00 | 25.80343 | -80.30152 | 18 ft | 10 kts | 179° |
| 2026-04-24 23:00 | 25.80290 | -80.30132 | 18 ft | 0 kts | 82° |
| 2026-04-24 23:01 | 25.80294 | -80.30084 | 18 ft | 25 kts | 86° |
| 2026-04-24 23:01 | 25.80313 | -80.29642 | 18 ft | 89 kts | 88° |
| 2026-04-24 23:01 | 25.80348 | -80.28744 | 21 ft | 140 kts | 91° |
| 2026-04-24 23:01 | 25.80415 | -80.27594 | 385 ft | 154 kts | 88° |
| 2026-04-24 23:02 | 25.80537 | -80.26348 | 777 ft | 173 kts | 84° |
| 2026-04-24 23:02 | 25.80681 | -80.24935 | 1150 ft | 188 kts | 87° |
| 2026-04-24 23:02 | 25.80570 | -80.23447 | 1903 ft | 206 kts | 115° |
| 2026-04-24 23:02 | 25.79592 | -80.22181 | 2702 ft | 230 kts | 137° |
| 2026-04-24 23:03 | 25.78380 | -80.20909 | 3486 ft | 249 kts | 131° |
| 2026-04-24 23:03 | 25.77330 | -80.19332 | 4453 ft | 256 kts | 119° |
| 2026-04-24 23:03 | 25.76481 | -80.17496 | 5003 ft | 288 kts | 115° |
| 2026-04-24 23:03 | 25.75520 | -80.15344 | 5073 ft | 331 kts | 117° |
| 2026-04-24 23:04 | 25.74423 | -80.13171 | 6422 ft | 306 kts | 120° |
| 2026-04-24 23:04 | 25.73432 | -80.11220 | 7385 ft | 294 kts | 117° |
| 2026-04-24 23:04 | 25.72619 | -80.09096 | 8288 ft | 301 kts | 109° |
| 2026-04-24 23:04 | 25.71977 | -80.06872 | 9353 ft | 305 kts | 107° |
| 2026-04-24 23:05 | 25.71284 | -80.04607 | 9872 ft | 318 kts | 110° |
| 2026-04-24 23:05 | 25.70484 | -80.02303 | 10706 ft | 319 kts | 111° |
| 2026-04-24 23:05 | 25.69691 | -79.99996 | 11522 ft | 325 kts | 111° |
| 2026-04-24 23:05 | 25.68916 | -79.97626 | 12098 ft | 337 kts | 110° |
| 2026-04-24 23:06 | 25.68106 | -79.95137 | 12711 ft | 349 kts | 111° |
| 2026-04-24 23:06 | 25.67266 | -79.92616 | 13594 ft | 350 kts | 111° |
| 2026-04-24 23:06 | 25.66408 | -79.90056 | 14288 ft | 356 kts | 111° |
| 2026-04-24 23:06 | 25.65548 | -79.87467 | 15020 ft | 360 kts | 111° |
| 2026-04-24 23:07 | 25.64683 | -79.84855 | 15731 ft | 364 kts | 111° |
| 2026-04-24 23:07 | 25.63800 | -79.82205 | 16420 ft | 368 kts | 111° |
| 2026-04-24 23:07 | 25.62907 | -79.79531 | 17113 ft | 372 kts | 111° |
| 2026-04-24 23:07 | 25.62007 | -79.76830 | 17804 ft | 376 kts | 111° |
| 2026-04-24 23:08 | 25.61097 | -79.74100 | 18436 ft | 380 kts | 111° |
| 2026-04-24 23:08 | 25.60177 | -79.71344 | 19022 ft | 383 kts | 111° |
| 2026-04-24 23:08 | 25.59290 | -79.68554 | 19612 ft | 386 kts | 109° |
| 2026-04-24 23:08 | 25.58549 | -79.65678 | 20178 ft | 390 kts | 105° |
| 2026-04-24 23:09 | 25.57883 | -79.62757 | 20746 ft | 393 kts | 105° |
| 2026-04-24 23:09 | 25.57138 | -79.59834 | 21298 ft | 396 kts | 108° |
| 2026-04-24 23:09 | 25.56331 | -79.56902 | 21845 ft | 399 kts | 108° |
| 2026-04-24 23:09 | 25.55550 | -79.53937 | 22371 ft | 403 kts | 107° |
| 2026-04-24 23:10 | 25.54796 | -79.50934 | 22910 ft | 406 kts | 107° |
| 2026-04-24 23:10 | 25.54022 | -79.47913 | 23419 ft | 409 kts | 107° |
| 2026-04-24 23:10 | 25.53219 | -79.44874 | 23849 ft | 413 kts | 107° |
| 2026-04-24 23:10 | 25.52415 | -79.41810 | 24240 ft | 417 kts | 107° |
| 2026-04-24 23:11 | 25.51626 | -79.38754 | 24626 ft | 420 kts | 107° |
| 2026-04-24 23:11 | 25.50816 | -79.35629 | 24957 ft | 426 kts | 107° |
| 2026-04-24 23:11 | 25.49976 | -79.32425 | 24960 ft | 441 kts | 108° |
| 2026-04-24 23:11 | 25.49108 | -79.29118 | 24971 ft | 454 kts | 107° |
| 2026-04-24 23:12 | 25.48220 | -79.25715 | 24979 ft | 467 kts | 107° |
| 2026-04-24 23:12 | 25.47308 | -79.22216 | 24977 ft | 479 kts | 107° |
| 2026-04-24 23:12 | 25.46366 | -79.18629 | 24983 ft | 490 kts | 107° |
| 2026-04-24 23:12 | 25.45405 | -79.14970 | 24984 ft | 500 kts | 107° |
| 2026-04-24 23:13 | 25.44425 | -79.11236 | 24979 ft | 510 kts | 107° |
| 2026-04-24 23:13 | 25.43429 | -79.07442 | 24979 ft | 518 kts | 107° |
| 2026-04-24 23:13 | 25.42413 | -79.03585 | 24986 ft | 526 kts | 107° |
| 2026-04-24 23:13 | 25.41381 | -78.99670 | 24982 ft | 533 kts | 107° |
| 2026-04-24 23:14 | 25.40339 | -78.95713 | 24982 ft | 540 kts | 107° |
| 2026-04-24 23:14 | 25.39282 | -78.91706 | 24983 ft | 545 kts | 107° |
| 2026-04-24 23:14 | 25.38216 | -78.87681 | 24978 ft | 546 kts | 107° |
| 2026-04-24 23:14 | 25.37148 | -78.83650 | 24982 ft | 546 kts | 107° |
| 2026-04-24 23:15 | 25.36083 | -78.79621 | 24982 ft | 546 kts | 107° |
| 2026-04-24 23:15 | 25.35015 | -78.75594 | 24981 ft | 546 kts | 108° |
| 2026-04-24 23:15 | 25.33939 | -78.71559 | 24978 ft | 547 kts | 108° |
| 2026-04-24 23:15 | 25.32867 | -78.67525 | 24982 ft | 547 kts | 108° |
| 2026-04-24 23:16 | 25.31798 | -78.63498 | 24981 ft | 547 kts | 108° |
| 2026-04-24 23:16 | 25.30719 | -78.59455 | 24987 ft | 547 kts | 108° |
| 2026-04-24 23:16 | 25.29639 | -78.55421 | 24985 ft | 548 kts | 108° |
| 2026-04-24 23:16 | 25.28563 | -78.51388 | 24984 ft | 548 kts | 108° |
| 2026-04-24 23:17 | 25.27676 | -78.47292 | 24964 ft | 550 kts | 99° |
| 2026-04-24 23:17 | 25.27436 | -78.43081 | 24968 ft | 550 kts | 89° |
| 2026-04-24 23:17 | 25.27673 | -78.38880 | 24971 ft | 551 kts | 85° |
| 2026-04-24 23:17 | 25.28157 | -78.34684 | 24971 ft | 551 kts | 81° |
| 2026-04-24 23:18 | 25.28785 | -78.30503 | 24975 ft | 551 kts | 81° |
| 2026-04-24 23:18 | 25.29301 | -78.26370 | 24980 ft | 551 kts | 84° |
| 2026-04-24 23:18 | 25.29432 | -78.24948 | 24977 ft | 551 kts | 84° |
| 2026-04-24 23:18 | 25.29521 | -78.23869 | 24977 ft | 551 kts | 85° |
| 2026-04-24 23:19 | 25.29752 | -78.20958 | 24984 ft | 526 kts | 85° |
| 2026-04-24 23:19 | 25.30039 | -78.17045 | 24971 ft | 509 kts | 86° |
| 2026-04-24 23:19 | 25.30204 | -78.13106 | 24968 ft | 518 kts | 90° |
| 2026-04-24 23:19 | 25.30119 | -78.09095 | 24982 ft | 526 kts | 93° |
| 2026-04-24 23:20 | 25.29940 | -78.05032 | 24979 ft | 533 kts | 92° |
| 2026-04-24 23:20 | 25.29817 | -78.00913 | 24984 ft | 540 kts | 92° |
| 2026-04-24 23:20 | 25.29695 | -77.96749 | 24994 ft | 545 kts | 91° |
| 2026-04-24 23:20 | 25.29756 | -77.92535 | 24990 ft | 551 kts | 87° |
| 2026-04-24 23:21 | 25.30052 | -77.88310 | 24989 ft | 552 kts | 84° |
| 2026-04-24 23:21 | 25.30423 | -77.84091 | 24990 ft | 552 kts | 85° |
| 2026-04-24 23:21 | 25.30619 | -77.79849 | 24987 ft | 552 kts | 89° |
| 2026-04-24 23:21 | 25.30653 | -77.75619 | 24639 ft | 546 kts | 90° |
| 2026-04-24 23:22 | 25.30782 | -77.71500 | 23980 ft | 527 kts | 86° |
| 2026-04-24 23:22 | 25.31060 | -77.67522 | 23313 ft | 511 kts | 85° |
| 2026-04-24 23:22 | 25.31283 | -77.63661 | 22609 ft | 496 kts | 88° |
| 2026-04-24 23:22 | 25.31375 | -77.59902 | 21940 ft | 483 kts | 89° |
| 2026-04-24 23:23 | 25.31476 | -77.56235 | 21300 ft | 471 kts | 87° |
| 2026-04-24 23:23 | 25.31662 | -77.52662 | 20687 ft | 461 kts | 86° |
| 2026-04-24 23:23 | 25.31848 | -77.49167 | 20109 ft | 451 kts | 87° |
| 2026-04-24 23:23 | 25.31973 | -77.45713 | 19538 ft | 451 kts | 88° |
| 2026-04-24 23:24 | 25.32044 | -77.43417 | 19164 ft | 452 kts | 88° |
| 2026-04-24 23:24 | 25.32181 | -77.39944 | 18610 ft | 453 kts | 87° |
| 2026-04-24 23:24 | 25.32346 | -77.36423 | 18045 ft | 466 kts | 87° |
| 2026-04-24 23:24 | 25.32499 | -77.32786 | 17378 ft | 480 kts | 88° |
| 2026-04-24 23:25 | 25.32675 | -77.27836 | 16506 ft | 492 kts | 88° |
| 2026-04-24 23:25 | 25.32775 | -77.25284 | 16068 ft | 491 kts | 87° |
| 2026-04-24 23:25 | 25.32937 | -77.21529 | 15433 ft | 486 kts | 87° |
| 2026-04-24 23:25 | 25.33089 | -77.17832 | 14828 ft | 477 kts | 87° |
| 2026-04-24 23:26 | 25.33220 | -77.14208 | 14251 ft | 468 kts | 88° |
| 2026-04-24 23:26 | 25.33353 | -77.10638 | 13652 ft | 461 kts | 87° |
| 2026-04-24 23:26 | 25.33500 | -77.07122 | 13022 ft | 454 kts | 87° |
| 2026-04-24 23:26 | 25.33639 | -77.03657 | 12415 ft | 448 kts | 87° |
| 2026-04-24 23:27 | 25.33760 | -77.00239 | 11834 ft | 442 kts | 88° |
| 2026-04-24 23:27 | 25.33883 | -76.96868 | 11271 ft | 436 kts | 87° |
| 2026-04-24 23:27 | 25.34017 | -76.93542 | 10724 ft | 431 kts | 87° |
| 2026-04-24 23:27 | 25.34144 | -76.90251 | 10192 ft | 426 kts | 88° |
| 2026-04-24 23:28 | 25.34258 | -76.86999 | 9653 ft | 420 kts | 88° |
| 2026-04-24 23:28 | 25.34374 | -76.83790 | 9088 ft | 416 kts | 88° |
| 2026-04-24 23:28 | 25.34497 | -76.80615 | 8539 ft | 411 kts | 88° |
| 2026-04-24 23:28 | 25.34614 | -76.77477 | 8001 ft | 407 kts | 88° |
| 2026-04-24 23:29 | 25.34723 | -76.74403 | 7484 ft | 403 kts | 88° |
| 2026-04-24 23:29 | 25.34834 | -76.71288 | 6969 ft | 399 kts | 89° |
| 2026-04-24 23:29 | 25.34944 | -76.68279 | 6485 ft | 395 kts | 89° |
| 2026-04-24 23:29 | 25.35054 | -76.65219 | 5954 ft | 391 kts | 89° |
| 2026-04-24 23:30 | 25.35158 | -76.62274 | 5450 ft | 383 kts | 89° |
| 2026-04-24 23:30 | 25.35259 | -76.59422 | 4977 ft | 360 kts | 89° |
| 2026-04-24 23:30 | 25.35355 | -76.56729 | 4533 ft | 341 kts | 89° |
| 2026-04-24 23:30 | 25.35446 | -76.54178 | 4101 ft | 324 kts | 89° |
| 2026-04-24 23:31 | 25.35530 | -76.51740 | 3698 ft | 311 kts | 88° |
| 2026-04-24 23:31 | 25.35610 | -76.49409 | 3315 ft | 294 kts | 88° |
| 2026-04-24 23:31 | 25.35687 | -76.47218 | 2953 ft | 277 kts | 88° |
| 2026-04-24 23:31 | 25.35759 | -76.45146 | 2606 ft | 263 kts | 88° |
| 2026-04-24 23:32 | 25.35826 | -76.43175 | 2270 ft | 249 kts | 89° |
| 2026-04-24 23:32 | 25.35878 | -76.41340 | 1956 ft | 226 kts | 91° |
| 2026-04-24 23:32 | 25.35608 | -76.39755 | 1678 ft | 197 kts | 110° |
| 2026-04-24 23:32 | 25.35009 | -76.38519 | 1418 ft | 170 kts | 126° |
| 2026-04-24 23:33 | 25.34257 | -76.37634 | 1224 ft | 147 kts | 137° |
| 2026-04-24 23:33 | 25.33472 | -76.37019 | 987 ft | 133 kts | 145° |
| 2026-04-24 23:33 | 25.32740 | -76.36438 | 810 ft | 126 kts | 137° |
| 2026-04-24 23:33 | 25.32010 | -76.35818 | 678 ft | 136 kts | 143° |
| 2026-04-24 23:34 | 25.31248 | -76.35259 | 492 ft | 126 kts | 142° |
| 2026-04-24 23:34 | 25.30538 | -76.34725 | 318 ft | 120 kts | 143° |
| 2026-04-24 23:34 | 25.29883 | -76.34199 | 178 ft | 117 kts | 144° |
| 2026-04-24 23:34 | 25.29203 | -76.33667 | 67 ft | 119 kts | 141° |
| 2026-04-24 23:35 | 25.28642 | -76.33221 | 27 ft | 71 kts | 145° |
| 2026-04-24 23:35 | 25.28364 | -76.33010 | 26 ft | 32 kts | 144° |
| 2026-04-24 23:35 | 25.28210 | -76.32890 | 26 ft | 27 kts | 146° |
| 2026-04-24 23:35 | 25.28045 | -76.32766 | 27 ft | 31 kts | 144° |
| 2026-04-24 23:36 | 25.27871 | -76.32628 | 30 ft | 26 kts | 146° |
| 2026-04-24 23:36 | 25.27833 | -76.32519 | 28 ft | 14 kts | 55° |
| 2026-04-24 23:36 | 25.27870 | -76.32412 | 26 ft | 17 kts | 112° |
| 2026-04-24 23:36 | 25.27814 | -76.32327 | 27 ft | 2 kts | 219° |
| 2026-04-24 23:37 | 25.27812 | -76.32331 | 27 ft | 0 kts | 245° |